Terminal Aerodrome Forecast
Issued by NWS

Home | Current Version | Previous Version | Text Only | Print | Product List | Glossary On
Versions: 1 2 3 4 5 6 7 8 9 10 11 12 13 14
000
FTUS46 KMFR 142300
TAFOTH
TAF
KOTH 142339Z 1500/1524 31010KT P6SM SKC
     FM150500 16003KT P6SM SCT250
     FM151000 16003KT 5SM BR BKN006
     FM151600 16003KT P6SM FEW100 BKN250
     FM151900 27009KT P6SM SCT100 BKN250=

USA.gov is the U.S. government's official web portal to all federal, state and local government web resources and services.